sensor_id;sensor_type;location;lat;lon;timestamp;pressure;altitude;pressure_sealevel;temperature;humidity
61359;BME280;47228;46.762;23.598;2022-08-19T00:01:37;96950.63;;;20.44;67.78
61359;BME280;47228;46.762;23.598;2022-08-19T00:04:08;96950.07;;;20.44;67.56
61359;BME280;47228;46.762;23.598;2022-08-19T00:06:38;96950.36;;;20.42;67.36
61359;BME280;47228;46.762;23.598;2022-08-19T00:09:10;96952.89;;;20.41;67.28
61359;BME280;47228;46.762;23.598;2022-08-19T00:11:39;96951.27;;;20.42;67.35
61359;BME280;47228;46.762;23.598;2022-08-19T00:14:09;96949.92;;;20.45;67.44
61359;BME280;47228;46.762;23.598;2022-08-19T00:16:38;96946.72;;;20.47;67.09
61359;BME280;47228;46.762;23.598;2022-08-19T00:19:07;96947.73;;;20.49;66.88
61359;BME280;47228;46.762;23.598;2022-08-19T00:21:36;96956.11;;;20.48;67.29
61359;BME280;47228;46.762;23.598;2022-08-19T00:24:09;96966.48;;;20.46;67.27
61359;BME280;47228;46.762;23.598;2022-08-19T00:26:38;96966.98;;;20.42;67.40
61359;BME280;47228;46.762;23.598;2022-08-19T00:29:08;96967.48;;;20.38;67.33
61359;BME280;47228;46.762;23.598;2022-08-19T00:31:37;96962.80;;;20.36;67.48
61359;BME280;47228;46.762;23.598;2022-08-19T00:34:05;96960.48;;;20.35;67.50
61359;BME280;47228;46.762;23.598;2022-08-19T00:36:34;96953.64;;;20.33;67.39
61359;BME280;47228;46.762;23.598;2022-08-19T00:39:02;96956.58;;;20.28;67.67
61359;BME280;47228;46.762;23.598;2022-08-19T00:41:30;96966.52;;;20.22;67.64
61359;BME280;47228;46.762;23.598;2022-08-19T00:44:05;96969.36;;;20.15;67.81
61359;BME280;47228;46.762;23.598;2022-08-19T00:46:35;96966.61;;;20.10;67.92
61359;BME280;47228;46.762;23.598;2022-08-19T00:52:24;96960.69;;;20.07;68.07
61359;BME280;47228;46.762;23.598;2022-08-19T00:54:52;96961.94;;;20.07;68.11
61359;BME280;47228;46.762;23.598;2022-08-19T00:57:25;96957.41;;;20.07;68.67
61359;BME280;47228;46.762;23.598;2022-08-19T00:59:56;96954.64;;;20.03;68.62
61359;BME280;47228;46.762;23.598;2022-08-19T01:02:31;96959.14;;;19.97;68.21
61359;BME280;47228;46.762;23.598;2022-08-19T01:05:03;96971.55;;;19.90;68.54
61359;BME280;47228;46.762;23.598;2022-08-19T01:07:34;96972.01;;;19.84;68.55
61359;BME280;47228;46.762;23.598;2022-08-19T01:10:07;96966.89;;;19.79;68.48
61359;BME280;47228;46.762;23.598;2022-08-19T01:12:37;96964.27;;;19.74;68.49
61359;BME280;47228;46.762;23.598;2022-08-19T01:15:07;96959.31;;;19.70;68.51
61359;BME280;47228;46.762;23.598;2022-08-19T01:17:38;96963.47;;;19.68;68.56
61359;BME280;47228;46.762;23.598;2022-08-19T01:20:15;96970.91;;;19.68;68.87
61359;BME280;47228;46.762;23.598;2022-08-19T01:22:53;96973.75;;;19.71;68.84
61359;BME280;47228;46.762;23.598;2022-08-19T01:25:31;96968.19;;;19.74;68.82
61359;BME280;47228;46.762;23.598;2022-08-19T01:28:00;96971.27;;;19.76;68.98
61359;BME280;47228;46.762;23.598;2022-08-19T01:30:37;96980.96;;;19.76;68.87
61359;BME280;47228;46.762;23.598;2022-08-19T01:33:11;96974.98;;;19.74;69.11
61359;BME280;47228;46.762;23.598;2022-08-19T01:35:40;96967.77;;;19.73;69.18
61359;BME280;47228;46.762;23.598;2022-08-19T01:38:27;96970.36;;;19.69;69.22
61359;BME280;47228;46.762;23.598;2022-08-19T01:40:59;96978.39;;;19.65;69.21
61359;BME280;47228;46.762;23.598;2022-08-19T01:43:29;96974.47;;;19.59;69.38
61359;BME280;47228;46.762;23.598;2022-08-19T01:45:57;96964.62;;;19.57;69.31
61359;BME280;47228;46.762;23.598;2022-08-19T01:48:25;96963.61;;;19.56;69.72
61359;BME280;47228;46.762;23.598;2022-08-19T01:50:53;96969.41;;;19.53;69.62
61359;BME280;47228;46.762;23.598;2022-08-19T01:53:21;96972.86;;;19.51;70.14
61359;BME280;47228;46.762;23.598;2022-08-19T01:55:53;96967.91;;;19.49;70.24
61359;BME280;47228;46.762;23.598;2022-08-19T01:58:26;96974.11;;;19.40;69.98
61359;BME280;47228;46.762;23.598;2022-08-19T02:00:57;96981.01;;;19.34;70.37
61359;BME280;47228;46.762;23.598;2022-08-19T02:03:26;96977.77;;;19.32;71.02
61359;BME280;47228;46.762;23.598;2022-08-19T02:05:56;96980.56;;;19.30;70.57
61359;BME280;47228;46.762;23.598;2022-08-19T02:08:26;96979.34;;;19.27;70.74
61359;BME280;47228;46.762;23.598;2022-08-19T02:10:55;96991.56;;;19.20;70.93
61359;BME280;47228;46.762;23.598;2022-08-19T02:13:27;96992.31;;;19.15;71.04
61359;BME280;47228;46.762;23.598;2022-08-19T02:15:55;96979.70;;;19.13;71.44
61359;BME280;47228;46.762;23.598;2022-08-19T02:18:23;96977.02;;;19.13;71.56
61359;BME280;47228;46.762;23.598;2022-08-19T02:20:54;96987.00;;;19.06;71.51
61359;BME280;47228;46.762;23.598;2022-08-19T02:23:22;96986.88;;;18.98;71.76
61359;BME280;47228;46.762;23.598;2022-08-19T02:25:51;96979.88;;;18.95;72.17
61359;BME280;47228;46.762;23.598;2022-08-19T02:28:19;96975.51;;;18.94;72.32
61359;BME280;47228;46.762;23.598;2022-08-19T02:30:47;96979.50;;;18.95;72.51
61359;BME280;47228;46.762;23.598;2022-08-19T02:33:16;96982.62;;;18.95;72.40
61359;BME280;47228;46.762;23.598;2022-08-19T02:35:45;96981.70;;;18.96;72.44
61359;BME280;47228;46.762;23.598;2022-08-19T02:38:15;96978.81;;;18.96;72.49
61359;BME280;47228;46.762;23.598;2022-08-19T02:41:00;96983.75;;;18.94;72.40
61359;BME280;47228;46.762;23.598;2022-08-19T02:43:30;96987.02;;;18.89;72.49
61359;BME280;47228;46.762;23.598;2022-08-19T02:46:10;96988.95;;;18.86;72.52
61359;BME280;47228;46.762;23.598;2022-08-19T02:48:39;96989.86;;;18.86;72.92
61359;BME280;47228;46.762;23.598;2022-08-19T02:51:07;96994.33;;;18.83;72.88
61359;BME280;47228;46.762;23.598;2022-08-19T02:53:35;96995.94;;;18.81;72.95
61359;BME280;47228;46.762;23.598;2022-08-19T02:56:07;96996.73;;;18.79;72.80
61359;BME280;47228;46.762;23.598;2022-08-19T02:58:35;96997.01;;;18.79;73.09
61359;BME280;47228;46.762;23.598;2022-08-19T03:01:05;96997.70;;;18.76;72.91
61359;BME280;47228;46.762;23.598;2022-08-19T03:03:33;97001.89;;;18.73;73.41
61359;BME280;47228;46.762;23.598;2022-08-19T03:06:07;97003.50;;;18.72;73.00
61359;BME280;47228;46.762;23.598;2022-08-19T03:08:36;96999.52;;;18.70;73.29
61359;BME280;47228;46.762;23.598;2022-08-19T03:11:04;96998.76;;;18.64;73.27
61359;BME280;47228;46.762;23.598;2022-08-19T03:13:33;97001.09;;;18.59;73.36
61359;BME280;47228;46.762;23.598;2022-08-19T03:16:04;97005.94;;;18.56;73.57
61359;BME280;47228;46.762;23.598;2022-08-19T03:18:33;97004.69;;;18.55;73.87
61359;BME280;47228;46.762;23.598;2022-08-19T03:21:02;97007.31;;;18.54;74.06
61359;BME280;47228;46.762;23.598;2022-08-19T03:23:30;97010.70;;;18.53;73.97
61359;BME280;47228;46.762;23.598;2022-08-19T03:26:02;97008.05;;;18.49;73.86
61359;BME280;47228;46.762;23.598;2022-08-19T03:28:44;97009.98;;;18.45;74.00
61359;BME280;47228;46.762;23.598;2022-08-19T03:31:26;97002.33;;;18.42;74.23
61359;BME280;47228;46.762;23.598;2022-08-19T03:34:17;97005.55;;;18.38;74.20
61359;BME280;47228;46.762;23.598;2022-08-19T03:36:46;97013.11;;;18.33;74.47
61359;BME280;47228;46.762;23.598;2022-08-19T03:39:16;97013.10;;;18.31;74.73
61359;BME280;47228;46.762;23.598;2022-08-19T03:41:46;97007.83;;;18.33;74.82
61359;BME280;47228;46.762;23.598;2022-08-19T03:44:20;97002.41;;;18.34;74.79
61359;BME280;47228;46.762;23.598;2022-08-19T03:46:52;97008.58;;;18.31;74.64
61359;BME280;47228;46.762;23.598;2022-08-19T03:49:25;97012.59;;;18.27;74.98
61359;BME280;47228;46.762;23.598;2022-08-19T03:51:57;97014.96;;;18.26;75.42
61359;BME280;47228;46.762;23.598;2022-08-19T03:54:28;97013.73;;;18.27;75.36
61359;BME280;47228;46.762;23.598;2022-08-19T03:56:57;97013.99;;;18.28;75.49
61359;BME280;47228;46.762;23.598;2022-08-19T03:59:31;97021.36;;;18.27;75.68
61359;BME280;47228;46.762;23.598;2022-08-19T04:02:03;97017.48;;;18.29;75.66
61359;BME280;47228;46.762;23.598;2022-08-19T04:04:33;97014.83;;;18.34;75.83
61359;BME280;47228;46.762;23.598;2022-08-19T04:07:01;97021.47;;;18.40;75.94
61359;BME280;47228;46.762;23.598;2022-08-19T04:09:30;97029.61;;;18.46;75.61
61359;BME280;47228;46.762;23.598;2022-08-19T04:11:58;97029.08;;;18.49;75.77
61359;BME280;47228;46.762;23.598;2022-08-19T04:14:29;97030.08;;;18.55;75.94
61359;BME280;47228;46.762;23.598;2022-08-19T04:17:02;97033.70;;;18.61;75.24
61359;BME280;47228;46.762;23.598;2022-08-19T04:19:34;97038.08;;;18.64;75.04
61359;BME280;47228;46.762;23.598;2022-08-19T04:22:03;97040.61;;;18.66;75.41
61359;BME280;47228;46.762;23.598;2022-08-19T04:24:34;97039.33;;;18.69;75.10
61359;BME280;47228;46.762;23.598;2022-08-19T04:27:03;97038.69;;;18.72;75.19
61359;BME280;47228;46.762;23.598;2022-08-19T04:29:32;97043.59;;;18.76;75.36
61359;BME280;47228;46.762;23.598;2022-08-19T04:32:01;97048.86;;;18.77;74.74
61359;BME280;47228;46.762;23.598;2022-08-19T04:34:37;97045.58;;;18.77;74.79
61359;BME280;47228;46.762;23.598;2022-08-19T04:37:27;97045.81;;;18.79;74.73
61359;BME280;47228;46.762;23.598;2022-08-19T04:40:05;97047.31;;;18.79;74.52
61359;BME280;47228;46.762;23.598;2022-08-19T04:42:51;97046.30;;;18.81;74.66
61359;BME280;47228;46.762;23.598;2022-08-19T04:45:22;97039.85;;;18.85;74.66
61359;BME280;47228;46.762;23.598;2022-08-19T04:47:54;97036.75;;;18.90;74.75
61359;BME280;47228;46.762;23.598;2022-08-19T04:50:26;97041.05;;;18.94;74.23
61359;BME280;47228;46.762;23.598;2022-08-19T04:52:54;97042.30;;;18.96;74.14
61359;BME280;47228;46.762;23.598;2022-08-19T04:55:24;97041.93;;;19.01;74.37
61359;BME280;47228;46.762;23.598;2022-08-19T04:57:55;97030.39;;;19.06;74.06
61359;BME280;47228;46.762;23.598;2022-08-19T05:00:23;97033.44;;;19.13;74.00
61359;BME280;47228;46.762;23.598;2022-08-19T05:02:51;97030.42;;;19.18;73.91
61359;BME280;47228;46.762;23.598;2022-08-19T05:05:19;97021.21;;;19.23;73.85
61359;BME280;47228;46.762;23.598;2022-08-19T05:07:48;97018.00;;;19.30;73.84
61359;BME280;47228;46.762;23.598;2022-08-19T05:10:16;97022.41;;;19.36;73.50
61359;BME280;47228;46.762;23.598;2022-08-19T05:12:44;97028.29;;;19.41;73.19
61359;BME280;47228;46.762;23.598;2022-08-19T05:15:13;97026.98;;;19.44;73.02
61359;BME280;47228;46.762;23.598;2022-08-19T05:17:41;97023.02;;;19.48;72.85
61359;BME280;47228;46.762;23.598;2022-08-19T05:20:28;97016.86;;;19.54;72.94
61359;BME280;47228;46.762;23.598;2022-08-19T05:23:15;97016.81;;;19.59;72.81
61359;BME280;47228;46.762;23.598;2022-08-19T05:25:52;97022.30;;;19.65;72.48
61359;BME280;47228;46.762;23.598;2022-08-19T05:28:20;97020.36;;;19.71;72.28
61359;BME280;47228;46.762;23.598;2022-08-19T05:30:48;97021.43;;;19.75;71.78
61359;BME280;47228;46.762;23.598;2022-08-19T05:33:19;97021.91;;;19.79;71.93
61359;BME280;47228;46.762;23.598;2022-08-19T05:35:48;97027.56;;;19.80;71.43
61359;BME280;47228;46.762;23.598;2022-08-19T05:38:17;97027.61;;;19.83;71.42
61359;BME280;47228;46.762;23.598;2022-08-19T05:40:45;97029.12;;;19.87;71.41
61359;BME280;47228;46.762;23.598;2022-08-19T05:43:15;97025.70;;;19.94;71.39
61359;BME280;47228;46.762;23.598;2022-08-19T05:45:43;97026.30;;;19.98;70.99
61359;BME280;47228;46.762;23.598;2022-08-19T05:48:12;97022.91;;;20.03;70.59
61359;BME280;47228;46.762;23.598;2022-08-19T05:50:41;97024.10;;;20.06;70.68
61359;BME280;47228;46.762;23.598;2022-08-19T05:53:10;97028.02;;;20.14;70.91
61359;BME280;47228;46.762;23.598;2022-08-19T05:55:38;97030.80;;;20.20;70.62
61359;BME280;47228;46.762;23.598;2022-08-19T05:58:06;97032.40;;;20.26;70.55
61359;BME280;47228;46.762;23.598;2022-08-19T06:00:37;97036.52;;;20.35;70.31
61359;BME280;47228;46.762;23.598;2022-08-19T06:03:05;97033.53;;;20.43;70.08
61359;BME280;47228;46.762;23.598;2022-08-19T06:05:41;97036.09;;;20.51;70.08
61359;BME280;47228;46.762;23.598;2022-08-19T06:08:19;97034.27;;;20.62;69.79
61359;BME280;47228;46.762;23.598;2022-08-19T06:11:34;97032.77;;;20.70;69.53
61359;BME280;47228;46.762;23.598;2022-08-19T06:14:06;97032.84;;;20.78;69.33
61359;BME280;47228;46.762;23.598;2022-08-19T06:16:44;97030.21;;;20.87;69.37
61359;BME280;47228;46.762;23.598;2022-08-19T06:19:16;97025.69;;;20.96;69.24
61359;BME280;47228;46.762;23.598;2022-08-19T06:21:47;97027.95;;;21.07;69.37
61359;BME280;47228;46.762;23.598;2022-08-19T06:24:18;97028.36;;;21.19;69.17
61359;BME280;47228;46.762;23.598;2022-08-19T06:26:48;97026.02;;;21.29;68.99
61359;BME280;47228;46.762;23.598;2022-08-19T06:29:17;97022.02;;;21.37;68.39
61359;BME280;47228;46.762;23.598;2022-08-19T06:31:53;97022.89;;;21.42;68.53
61359;BME280;47228;46.762;23.598;2022-08-19T06:34:22;97022.56;;;21.50;68.50
61359;BME280;47228;46.762;23.598;2022-08-19T06:36:52;97023.58;;;21.59;67.96
61359;BME280;47228;46.762;23.598;2022-08-19T06:39:23;97025.60;;;21.69;68.09
61359;BME280;47228;46.762;23.598;2022-08-19T06:41:56;97029.59;;;21.78;68.17
61359;BME280;47228;46.762;23.598;2022-08-19T06:44:30;97034.04;;;21.88;67.84
61359;BME280;47228;46.762;23.598;2022-08-19T06:47:13;97036.00;;;21.98;67.42
61359;BME280;47228;46.762;23.598;2022-08-19T06:49:56;97035.63;;;22.07;66.78
61359;BME280;47228;46.762;23.598;2022-08-19T06:52:33;97035.41;;;22.14;66.67
61359;BME280;47228;46.762;23.598;2022-08-19T06:55:05;97033.40;;;22.19;66.64
61359;BME280;47228;46.762;23.598;2022-08-19T06:57:34;97035.67;;;22.25;66.43
61359;BME280;47228;46.762;23.598;2022-08-19T07:00:04;97035.16;;;22.31;65.89
61359;BME280;47228;46.762;23.598;2022-08-19T07:02:41;97041.66;;;22.41;66.05
61359;BME280;47228;46.762;23.598;2022-08-19T07:05:22;97035.73;;;22.52;65.95
61359;BME280;47228;46.762;23.598;2022-08-19T07:07:50;97033.38;;;22.61;65.28
61359;BME280;47228;46.762;23.598;2022-08-19T07:10:19;97033.65;;;22.70;65.42
61359;BME280;47228;46.762;23.598;2022-08-19T07:12:47;97037.98;;;22.79;65.21
61359;BME280;47228;46.762;23.598;2022-08-19T07:15:16;97037.09;;;22.88;64.93
61359;BME280;47228;46.762;23.598;2022-08-19T07:17:45;97038.27;;;22.97;64.39
61359;BME280;47228;46.762;23.598;2022-08-19T07:20:19;97041.33;;;23.07;64.29
61359;BME280;47228;46.762;23.598;2022-08-19T07:22:47;97044.64;;;23.17;63.86
61359;BME280;47228;46.762;23.598;2022-08-19T07:25:17;97048.74;;;23.26;63.51
61359;BME280;47228;46.762;23.598;2022-08-19T07:27:49;97046.55;;;23.37;63.36
61359;BME280;47228;46.762;23.598;2022-08-19T07:30:21;97045.02;;;23.49;63.18
61359;BME280;47228;46.762;23.598;2022-08-19T07:32:53;97043.93;;;23.62;63.03
61359;BME280;47228;46.762;23.598;2022-08-19T07:35:21;97046.94;;;23.77;62.62
61359;BME280;47228;46.762;23.598;2022-08-19T07:37:51;97046.21;;;23.91;62.06
61359;BME280;47228;46.762;23.598;2022-08-19T07:40:21;97051.76;;;24.03;61.58
61359;BME280;47228;46.762;23.598;2022-08-19T07:42:49;97056.96;;;24.16;61.58
61359;BME280;47228;46.762;23.598;2022-08-19T07:45:17;97059.33;;;24.29;61.07
61359;BME280;47228;46.762;23.598;2022-08-19T07:47:45;97058.79;;;24.44;60.61
61359;BME280;47228;46.762;23.598;2022-08-19T07:50:19;97054.44;;;24.57;60.66
61359;BME280;47228;46.762;23.598;2022-08-19T07:52:49;97051.64;;;24.75;60.07
61359;BME280;47228;46.762;23.598;2022-08-19T07:55:20;97044.86;;;24.91;60.43
61359;BME280;47228;46.762;23.598;2022-08-19T07:58:07;97040.92;;;25.10;59.58
61359;BME280;47228;46.762;23.598;2022-08-19T08:00:35;97038.92;;;25.29;59.30
61359;BME280;47228;46.762;23.598;2022-08-19T08:03:04;97036.39;;;25.46;58.84
61359;BME280;47228;46.762;23.598;2022-08-19T08:05:32;97034.84;;;25.62;58.48
61359;BME280;47228;46.762;23.598;2022-08-19T08:08:18;97027.14;;;25.81;57.61
61359;BME280;47228;46.762;23.598;2022-08-19T08:11:19;97025.21;;;25.99;57.56
61359;BME280;47228;46.762;23.598;2022-08-19T08:13:50;97028.42;;;26.17;57.61
61359;BME280;47228;46.762;23.598;2022-08-19T08:16:37;97022.60;;;26.34;55.89
61359;BME280;47228;46.762;23.598;2022-08-19T08:19:14;97018.61;;;26.49;55.28
61359;BME280;47228;46.762;23.598;2022-08-19T08:21:55;97017.67;;;26.62;54.50
61359;BME280;47228;46.762;23.598;2022-08-19T08:24:24;97017.30;;;26.75;54.47
61359;BME280;47228;46.762;23.598;2022-08-19T08:26:56;97016.68;;;26.89;54.26
61359;BME280;47228;46.762;23.598;2022-08-19T08:29:27;97014.89;;;27.00;53.44
61359;BME280;47228;46.762;23.598;2022-08-19T08:32:03;97015.70;;;27.11;52.78
61359;BME280;47228;46.762;23.598;2022-08-19T08:34:42;97008.33;;;27.22;52.50
61359;BME280;47228;46.762;23.598;2022-08-19T08:37:10;97012.32;;;27.34;52.46
61359;BME280;47228;46.762;23.598;2022-08-19T08:39:38;97013.33;;;27.46;52.00
61359;BME280;47228;46.762;23.598;2022-08-19T08:42:15;97015.55;;;27.60;51.26
61359;BME280;47228;46.762;23.598;2022-08-19T08:45:14;97017.39;;;27.72;50.60
61359;BME280;47228;46.762;23.598;2022-08-19T08:47:48;97017.69;;;27.89;50.89
61359;BME280;47228;46.762;23.598;2022-08-19T08:50:34;97010.64;;;28.05;50.23
61359;BME280;47228;46.762;23.598;2022-08-19T08:53:06;97008.99;;;28.22;49.82
61359;BME280;47228;46.762;23.598;2022-08-19T08:55:36;97005.56;;;28.38;49.38
61359;BME280;47228;46.762;23.598;2022-08-19T08:58:09;97004.52;;;28.49;48.14
61359;BME280;47228;46.762;23.598;2022-08-19T09:00:47;96996.35;;;28.61;48.46
61359;BME280;47228;46.762;23.598;2022-08-19T09:03:25;96994.35;;;28.75;48.03
61359;BME280;47228;46.762;23.598;2022-08-19T09:08:45;96989.96;;;29.04;46.63
61359;BME280;47228;46.762;23.598;2022-08-19T09:11:44;96991.34;;;29.21;46.82
61359;BME280;47228;46.762;23.598;2022-08-19T09:14:31;96994.52;;;29.38;46.06
61359;BME280;47228;46.762;23.598;2022-08-19T09:17:24;96990.20;;;29.51;45.04
61359;BME280;47228;46.762;23.598;2022-08-19T09:19:59;96985.77;;;29.60;45.16
61359;BME280;47228;46.762;23.598;2022-08-19T09:22:41;96986.80;;;29.74;44.90
61359;BME280;47228;46.762;23.598;2022-08-19T09:25:16;96981.67;;;29.85;44.49
61359;BME280;47228;46.762;23.598;2022-08-19T09:27:54;96983.35;;;29.91;43.60
61359;BME280;47228;46.762;23.598;2022-08-19T09:30:33;96985.67;;;29.99;43.09
61359;BME280;47228;46.762;23.598;2022-08-19T09:33:02;96985.42;;;30.06;43.36
61359;BME280;47228;46.762;23.598;2022-08-19T09:35:30;96983.13;;;30.14;42.75
61359;BME280;47228;46.762;23.598;2022-08-19T09:38:17;96981.62;;;30.24;42.22
61359;BME280;47228;46.762;23.598;2022-08-19T09:40:45;96981.97;;;30.31;41.90
61359;BME280;47228;46.762;23.598;2022-08-19T09:43:13;96978.80;;;30.42;41.49
61359;BME280;47228;46.762;23.598;2022-08-19T09:45:41;96982.41;;;30.55;41.30
61359;BME280;47228;46.762;23.598;2022-08-19T09:48:09;96982.72;;;30.63;41.01
61359;BME280;47228;46.762;23.598;2022-08-19T09:50:45;96979.93;;;30.71;41.50
61359;BME280;47228;46.762;23.598;2022-08-19T09:53:19;96979.13;;;30.78;40.88
61359;BME280;47228;46.762;23.598;2022-08-19T09:55:54;96977.20;;;30.82;40.44
61359;BME280;47228;46.762;23.598;2022-08-19T09:58:23;96978.65;;;30.84;40.38
61359;BME280;47228;46.762;23.598;2022-08-19T10:00:57;96978.20;;;30.92;40.58
61359;BME280;47228;46.762;23.598;2022-08-19T10:03:27;96977.23;;;31.06;40.14
61359;BME280;47228;46.762;23.598;2022-08-19T10:05:59;96974.40;;;31.19;40.21
61359;BME280;47228;46.762;23.598;2022-08-19T10:08:33;96969.93;;;31.36;39.39
61359;BME280;47228;46.762;23.598;2022-08-19T10:11:02;96962.35;;;31.45;38.63
61359;BME280;47228;46.762;23.598;2022-08-19T10:13:52;96960.55;;;31.55;37.54
61359;BME280;47228;46.762;23.598;2022-08-19T10:16:22;96957.90;;;31.58;36.43
61359;BME280;47228;46.762;23.598;2022-08-19T10:18:57;96949.77;;;31.59;36.13
61359;BME280;47228;46.762;23.598;2022-08-19T10:21:32;96953.01;;;31.66;37.19
61359;BME280;47228;46.762;23.598;2022-08-19T10:24:05;96957.95;;;31.82;36.91
61359;BME280;47228;46.762;23.598;2022-08-19T10:26:38;96947.45;;;32.02;36.44
61359;BME280;47228;46.762;23.598;2022-08-19T10:29:07;96940.48;;;32.13;35.64
61359;BME280;47228;46.762;23.598;2022-08-19T10:31:36;96944.36;;;32.27;36.49
61359;BME280;47228;46.762;23.598;2022-08-19T10:34:24;96944.95;;;32.54;35.95
61359;BME280;47228;46.762;23.598;2022-08-19T10:36:56;96937.48;;;32.75;35.18
61359;BME280;47228;46.762;23.598;2022-08-19T10:39:30;96937.92;;;32.90;34.48
61359;BME280;47228;46.762;23.598;2022-08-19T10:42:08;96939.94;;;33.07;34.29
61359;BME280;47228;46.762;23.598;2022-08-19T10:44:38;96939.09;;;33.20;34.29
61359;BME280;47228;46.762;23.598;2022-08-19T10:47:07;96933.95;;;33.36;34.03
61359;BME280;47228;46.762;23.598;2022-08-19T10:49:52;96931.06;;;33.51;33.91
61359;BME280;47228;46.762;23.598;2022-08-19T10:52:41;96938.41;;;33.60;33.49
61359;BME280;47228;46.762;23.598;2022-08-19T10:55:21;96941.17;;;33.75;32.78
61359;BME280;47228;46.762;23.598;2022-08-19T10:58:16;96941.20;;;33.96;32.29
61359;BME280;47228;46.762;23.598;2022-08-19T11:00:54;96941.02;;;34.14;32.14
61359;BME280;47228;46.762;23.598;2022-08-19T11:03:24;96936.17;;;34.32;31.95
61359;BME280;47228;46.762;23.598;2022-08-19T11:06:06;96937.77;;;34.45;31.65
61359;BME280;47228;46.762;23.598;2022-08-19T11:08:35;96933.01;;;34.54;31.05
61359;BME280;47228;46.762;23.598;2022-08-19T11:11:07;96927.30;;;34.58;30.34
61359;BME280;47228;46.762;23.598;2022-08-19T11:13:38;96924.67;;;34.56;30.13
61359;BME280;47228;46.762;23.598;2022-08-19T11:16:12;96927.61;;;34.52;30.82
61359;BME280;47228;46.762;23.598;2022-08-19T11:18:44;96928.51;;;34.60;31.57
61359;BME280;47228;46.762;23.598;2022-08-19T11:21:14;96931.70;;;34.61;30.41
61359;BME280;47228;46.762;23.598;2022-08-19T11:23:46;96929.71;;;34.50;30.21
61359;BME280;47228;46.762;23.598;2022-08-19T11:26:15;96928.78;;;34.45;31.09
61359;BME280;47228;46.762;23.598;2022-08-19T11:28:44;96929.75;;;34.46;31.03
61359;BME280;47228;46.762;23.598;2022-08-19T11:31:15;96931.73;;;34.48;31.79
61359;BME280;47228;46.762;23.598;2022-08-19T11:33:44;96930.22;;;34.52;31.27
61359;BME280;47228;46.762;23.598;2022-08-19T11:36:14;96925.59;;;34.64;30.11
61359;BME280;47228;46.762;23.598;2022-08-19T11:38:48;96922.62;;;34.72;30.16
61359;BME280;47228;46.762;23.598;2022-08-19T11:41:18;96919.84;;;34.83;30.23
61359;BME280;47228;46.762;23.598;2022-08-19T11:43:46;96919.34;;;34.94;29.55
61359;BME280;47228;46.762;23.598;2022-08-19T11:46:16;96920.91;;;35.01;29.23
61359;BME280;47228;46.762;23.598;2022-08-19T11:48:44;96919.91;;;35.03;29.87
61359;BME280;47228;46.762;23.598;2022-08-19T11:51:16;96917.32;;;35.12;29.56
61359;BME280;47228;46.762;23.598;2022-08-19T11:53:45;96913.02;;;35.21;28.95
61359;BME280;47228;46.762;23.598;2022-08-19T11:56:14;96904.29;;;35.21;27.64
61359;BME280;47228;46.762;23.598;2022-08-19T11:58:42;96904.95;;;35.18;28.42
61359;BME280;47228;46.762;23.598;2022-08-19T12:01:15;96905.95;;;35.30;28.55
61359;BME280;47228;46.762;23.598;2022-08-19T12:03:46;96904.24;;;35.34;28.81
61359;BME280;47228;46.762;23.598;2022-08-19T12:06:18;96902.92;;;35.36;28.70
61359;BME280;47228;46.762;23.598;2022-08-19T12:08:47;96900.77;;;35.42;28.51
61359;BME280;47228;46.762;23.598;2022-08-19T12:11:15;96901.20;;;35.46;28.74
61359;BME280;47228;46.762;23.598;2022-08-19T12:13:44;96892.14;;;35.55;28.47
61359;BME280;47228;46.762;23.598;2022-08-19T12:16:17;96894.92;;;35.67;28.14
61359;BME280;47228;46.762;23.598;2022-08-19T12:18:46;96890.75;;;35.58;27.61
61359;BME280;47228;46.762;23.598;2022-08-19T12:21:16;96889.83;;;35.54;28.15
61359;BME280;47228;46.762;23.598;2022-08-19T12:23:45;96891.80;;;35.53;27.94
61359;BME280;47228;46.762;23.598;2022-08-19T12:26:13;96892.27;;;35.35;28.24
61359;BME280;47228;46.762;23.598;2022-08-19T12:28:41;96887.45;;;35.26;28.29
61359;BME280;47228;46.762;23.598;2022-08-19T12:31:09;96887.55;;;35.12;28.05
61359;BME280;47228;46.762;23.598;2022-08-19T12:33:42;96879.61;;;34.87;28.00
61359;BME280;47228;46.762;23.598;2022-08-19T12:36:12;96874.73;;;34.67;28.97
61359;BME280;47228;46.762;23.598;2022-08-19T12:38:41;96875.64;;;34.51;29.19
61359;BME280;47228;46.762;23.598;2022-08-19T12:41:12;96877.13;;;34.38;29.57
61359;BME280;47228;46.762;23.598;2022-08-19T12:43:40;96871.59;;;34.24;29.10
61359;BME280;47228;46.762;23.598;2022-08-19T12:46:10;96866.76;;;34.11;29.48
61359;BME280;47228;46.762;23.598;2022-08-19T12:48:40;96865.75;;;34.02;29.97
61359;BME280;47228;46.762;23.598;2022-08-19T12:51:12;96863.66;;;33.94;29.95
61359;BME280;47228;46.762;23.598;2022-08-19T12:53:41;96858.46;;;33.88;29.76
61359;BME280;47228;46.762;23.598;2022-08-19T12:56:11;96856.50;;;33.83;29.61
61359;BME280;47228;46.762;23.598;2022-08-19T12:58:42;96852.94;;;33.77;29.74
61359;BME280;47228;46.762;23.598;2022-08-19T13:01:20;96856.21;;;33.70;29.68
61359;BME280;47228;46.762;23.598;2022-08-19T13:03:50;96853.59;;;33.62;29.75
61359;BME280;47228;46.762;23.598;2022-08-19T13:06:20;96850.11;;;33.57;29.83
61359;BME280;47228;46.762;23.598;2022-08-19T13:08:48;96846.48;;;33.51;30.27
61359;BME280;47228;46.762;23.598;2022-08-19T13:11:20;96847.41;;;33.47;30.64
61359;BME280;47228;46.762;23.598;2022-08-19T13:13:49;96840.26;;;33.42;30.85
61359;BME280;47228;46.762;23.598;2022-08-19T13:16:19;96837.13;;;33.37;31.05
61359;BME280;47228;46.762;23.598;2022-08-19T13:18:48;96835.89;;;33.34;30.66
61359;BME280;47228;46.762;23.598;2022-08-19T13:21:22;96835.48;;;33.28;30.46
61359;BME280;47228;46.762;23.598;2022-08-19T13:23:52;96835.99;;;33.21;30.69